sensor_id;sensor_type;location;lat;lon;timestamp;P1;durP1;ratioP1;P2;durP2;ratioP2
69937;SDS011;57248;47.320;15.998;2024-03-08T00:02:22;4.55;;;1.45;;
69937;SDS011;57248;47.320;15.998;2024-03-08T00:04:54;4.77;;;1.33;;
69937;SDS011;57248;47.320;15.998;2024-03-08T00:07:28;4.60;;;1.35;;
69937;SDS011;57248;47.320;15.998;2024-03-08T00:10:02;4.80;;;1.75;;
69937;SDS011;57248;47.320;15.998;2024-03-08T00:12:43;2.88;;;0.73;;
69937;SDS011;57248;47.320;15.998;2024-03-08T00:15:16;7.40;;;2.13;;
69937;SDS011;57248;47.320;15.998;2024-03-08T00:17:49;5.20;;;1.53;;
69937;SDS011;57248;47.320;15.998;2024-03-08T00:20:15;5.90;;;1.73;;
69937;SDS011;57248;47.320;15.998;2024-03-08T00:22:49;4.85;;;1.55;;
69937;SDS011;57248;47.320;15.998;2024-03-08T00:25:23;6.00;;;0.98;;
69937;SDS011;57248;47.320;15.998;2024-03-08T00:27:55;4.63;;;1.33;;
69937;SDS011;57248;47.320;15.998;2024-03-08T00:30:27;5.23;;;1.47;;
69937;SDS011;57248;47.320;15.998;2024-03-08T00:32:59;2.33;;;0.80;;
69937;SDS011;57248;47.320;15.998;2024-03-08T00:35:31;4.68;;;1.02;;
69937;SDS011;57248;47.320;15.998;2024-03-08T00:38:03;4.95;;;1.15;;
69937;SDS011;57248;47.320;15.998;2024-03-08T00:40:35;6.30;;;1.98;;
69937;SDS011;57248;47.320;15.998;2024-03-08T00:43:07;3.70;;;1.60;;
69937;SDS011;57248;47.320;15.998;2024-03-08T00:45:32;5.90;;;2.03;;
69937;SDS011;57248;47.320;15.998;2024-03-08T00:48:05;4.00;;;1.25;;
69937;SDS011;57248;47.320;15.998;2024-03-08T00:50:37;4.40;;;1.70;;
69937;SDS011;57248;47.320;15.998;2024-03-08T00:53:02;4.65;;;1.65;;
69937;SDS011;57248;47.320;15.998;2024-03-08T00:55:36;4.25;;;1.38;;
69937;SDS011;57248;47.320;15.998;2024-03-08T00:58:09;4.10;;;1.80;;
69937;SDS011;57248;47.320;15.998;2024-03-08T01:00:41;3.83;;;1.70;;
69937;SDS011;57248;47.320;15.998;2024-03-08T01:03:13;4.68;;;1.75;;
69937;SDS011;57248;47.320;15.998;2024-03-08T01:05:46;5.05;;;2.13;;
69937;SDS011;57248;47.320;15.998;2024-03-08T01:08:18;4.50;;;1.58;;
69937;SDS011;57248;47.320;15.998;2024-03-08T01:10:43;2.97;;;0.80;;
69937;SDS011;57248;47.320;15.998;2024-03-08T01:13:16;5.22;;;1.50;;
69937;SDS011;57248;47.320;15.998;2024-03-08T01:15:55;8.00;;;1.17;;
69937;SDS011;57248;47.320;15.998;2024-03-08T01:18:29;7.45;;;1.67;;
69937;SDS011;57248;47.320;15.998;2024-03-08T01:21:01;5.38;;;1.92;;
69937;SDS011;57248;47.320;15.998;2024-03-08T01:23:26;4.03;;;1.80;;
69937;SDS011;57248;47.320;15.998;2024-03-08T01:25:59;4.43;;;1.63;;
69937;SDS011;57248;47.320;15.998;2024-03-08T01:28:31;3.80;;;1.85;;
69937;SDS011;57248;47.320;15.998;2024-03-08T01:31:05;4.00;;;0.90;;
69937;SDS011;57248;47.320;15.998;2024-03-08T01:33:37;5.70;;;1.20;;
69937;SDS011;57248;47.320;15.998;2024-03-08T01:36:03;7.07;;;1.53;;
69937;SDS011;57248;47.320;15.998;2024-03-08T01:38:35;4.97;;;1.65;;
69937;SDS011;57248;47.320;15.998;2024-03-08T01:41:08;3.67;;;1.17;;
69937;SDS011;57248;47.320;15.998;2024-03-08T01:43:40;10.53;;;1.43;;
69937;SDS011;57248;47.320;15.998;2024-03-08T01:46:13;4.63;;;1.73;;
69937;SDS011;57248;47.320;15.998;2024-03-08T01:48:56;5.85;;;2.20;;
69937;SDS011;57248;47.320;15.998;2024-03-08T01:51:28;6.80;;;1.92;;
69937;SDS011;57248;47.320;15.998;2024-03-08T01:54:02;3.08;;;1.17;;
69937;SDS011;57248;47.320;15.998;2024-03-08T01:56:35;4.40;;;1.53;;
69937;SDS011;57248;47.320;15.998;2024-03-08T01:59:03;5.57;;;1.10;;
69937;SDS011;57248;47.320;15.998;2024-03-08T02:01:36;6.78;;;1.85;;
69937;SDS011;57248;47.320;15.998;2024-03-08T02:04:09;2.10;;;0.65;;
69937;SDS011;57248;47.320;15.998;2024-03-08T02:06:42;4.22;;;1.92;;
69937;SDS011;57248;47.320;15.998;2024-03-08T02:09:14;5.57;;;1.27;;
69937;SDS011;57248;47.320;15.998;2024-03-08T02:11:46;3.92;;;1.08;;
69937;SDS011;57248;47.320;15.998;2024-03-08T02:14:19;2.97;;;0.80;;
69937;SDS011;57248;47.320;15.998;2024-03-08T02:17:01;6.20;;;1.88;;
69937;SDS011;57248;47.320;15.998;2024-03-08T02:19:34;4.88;;;1.25;;
69937;SDS011;57248;47.320;15.998;2024-03-08T02:22:08;2.57;;;1.03;;
69937;SDS011;57248;47.320;15.998;2024-03-08T02:24:40;4.70;;;1.63;;
69937;SDS011;57248;47.320;15.998;2024-03-08T02:27:12;4.80;;;0.75;;
69937;SDS011;57248;47.320;15.998;2024-03-08T02:29:44;3.05;;;1.00;;
69937;SDS011;57248;47.320;15.998;2024-03-08T02:32:16;4.75;;;1.35;;
69937;SDS011;57248;47.320;15.998;2024-03-08T02:34:41;4.87;;;1.50;;
69937;SDS011;57248;47.320;15.998;2024-03-08T02:37:14;6.35;;;1.75;;
69937;SDS011;57248;47.320;15.998;2024-03-08T02:39:46;5.65;;;1.35;;
69937;SDS011;57248;47.320;15.998;2024-03-08T02:42:18;5.77;;;2.43;;
69937;SDS011;57248;47.320;15.998;2024-03-08T02:44:50;3.47;;;1.35;;
69937;SDS011;57248;47.320;15.998;2024-03-08T02:47:22;5.13;;;1.60;;
69937;SDS011;57248;47.320;15.998;2024-03-08T02:49:54;4.78;;;1.35;;
69937;SDS011;57248;47.320;15.998;2024-03-08T02:52:26;6.75;;;1.48;;
69937;SDS011;57248;47.320;15.998;2024-03-08T02:55:00;4.70;;;1.20;;
69937;SDS011;57248;47.320;15.998;2024-03-08T02:57:33;4.57;;;1.48;;
69937;SDS011;57248;47.320;15.998;2024-03-08T02:59:58;4.43;;;1.40;;
69937;SDS011;57248;47.320;15.998;2024-03-08T03:02:33;5.47;;;1.27;;
69937;SDS011;57248;47.320;15.998;2024-03-08T03:05:05;6.55;;;1.60;;
69937;SDS011;57248;47.320;15.998;2024-03-08T03:07:37;4.13;;;2.00;;
69937;SDS011;57248;47.320;15.998;2024-03-08T03:10:09;4.55;;;1.42;;
69937;SDS011;57248;47.320;15.998;2024-03-08T03:12:48;4.70;;;1.30;;
69937;SDS011;57248;47.320;15.998;2024-03-08T03:15:27;4.68;;;1.15;;
69937;SDS011;57248;47.320;15.998;2024-03-08T03:17:54;4.20;;;0.95;;
69937;SDS011;57248;47.320;15.998;2024-03-08T03:20:27;4.70;;;1.25;;
69937;SDS011;57248;47.320;15.998;2024-03-08T03:23:04;5.00;;;1.77;;
69937;SDS011;57248;47.320;15.998;2024-03-08T03:25:36;3.80;;;1.23;;
69937;SDS011;57248;47.320;15.998;2024-03-08T03:28:10;4.40;;;1.30;;
69937;SDS011;57248;47.320;15.998;2024-03-08T03:30:46;5.75;;;2.30;;
69937;SDS011;57248;47.320;15.998;2024-03-08T03:33:18;3.00;;;1.20;;
69937;SDS011;57248;47.320;15.998;2024-03-08T03:35:50;7.30;;;1.70;;
69937;SDS011;57248;47.320;15.998;2024-03-08T03:38:23;5.50;;;1.53;;
69937;SDS011;57248;47.320;15.998;2024-03-08T03:40:57;4.40;;;1.38;;
69937;SDS011;57248;47.320;15.998;2024-03-08T03:43:37;6.45;;;1.88;;
69937;SDS011;57248;47.320;15.998;2024-03-08T03:46:12;5.40;;;2.35;;
69937;SDS011;57248;47.320;15.998;2024-03-08T03:48:44;4.57;;;1.23;;
69937;SDS011;57248;47.320;15.998;2024-03-08T03:51:16;6.63;;;1.80;;
69937;SDS011;57248;47.320;15.998;2024-03-08T03:53:48;6.90;;;2.08;;
69937;SDS011;57248;47.320;15.998;2024-03-08T03:56:24;3.83;;;1.30;;
69937;SDS011;57248;47.320;15.998;2024-03-08T03:58:57;4.30;;;1.67;;
69937;SDS011;57248;47.320;15.998;2024-03-08T04:01:29;4.15;;;1.58;;
69937;SDS011;57248;47.320;15.998;2024-03-08T04:04:01;4.30;;;1.33;;
69937;SDS011;57248;47.320;15.998;2024-03-08T04:06:33;2.35;;;0.77;;
69937;SDS011;57248;47.320;15.998;2024-03-08T04:09:05;6.95;;;1.80;;
69937;SDS011;57248;47.320;15.998;2024-03-08T04:11:44;6.03;;;1.77;;
69937;SDS011;57248;47.320;15.998;2024-03-08T04:14:16;3.05;;;1.05;;
69937;SDS011;57248;47.320;15.998;2024-03-08T04:16:55;7.13;;;2.10;;
69937;SDS011;57248;47.320;15.998;2024-03-08T04:19:21;4.65;;;1.10;;
69937;SDS011;57248;47.320;15.998;2024-03-08T04:21:54;4.20;;;1.08;;
69937;SDS011;57248;47.320;15.998;2024-03-08T04:24:26;4.32;;;1.73;;
69937;SDS011;57248;47.320;15.998;2024-03-08T04:26:58;5.63;;;1.83;;
69937;SDS011;57248;47.320;15.998;2024-03-08T04:29:31;4.60;;;1.63;;
69937;SDS011;57248;47.320;15.998;2024-03-08T04:32:04;4.10;;;1.10;;
69937;SDS011;57248;47.320;15.998;2024-03-08T04:34:38;4.18;;;1.73;;
69937;SDS011;57248;47.320;15.998;2024-03-08T04:37:10;5.03;;;1.33;;
69937;SDS011;57248;47.320;15.998;2024-03-08T04:39:45;4.35;;;1.17;;
69937;SDS011;57248;47.320;15.998;2024-03-08T04:42:18;5.33;;;1.10;;
69937;SDS011;57248;47.320;15.998;2024-03-08T04:44:51;3.08;;;1.08;;
69937;SDS011;57248;47.320;15.998;2024-03-08T04:47:25;5.15;;;1.95;;
69937;SDS011;57248;47.320;15.998;2024-03-08T04:49:57;2.95;;;0.98;;
69937;SDS011;57248;47.320;15.998;2024-03-08T04:52:30;3.72;;;1.48;;
69937;SDS011;57248;47.320;15.998;2024-03-08T04:55:02;2.77;;;1.27;;
69937;SDS011;57248;47.320;15.998;2024-03-08T04:57:37;4.95;;;1.65;;
69937;SDS011;57248;47.320;15.998;2024-03-08T05:00:09;4.25;;;1.38;;
69937;SDS011;57248;47.320;15.998;2024-03-08T05:02:44;3.25;;;0.75;;
69937;SDS011;57248;47.320;15.998;2024-03-08T05:05:16;2.70;;;0.90;;
69937;SDS011;57248;47.320;15.998;2024-03-08T05:07:48;7.73;;;1.93;;
69937;SDS011;57248;47.320;15.998;2024-03-08T05:10:21;4.20;;;1.40;;
69937;SDS011;57248;47.320;15.998;2024-03-08T05:13:00;4.22;;;1.27;;
69937;SDS011;57248;47.320;15.998;2024-03-08T05:15:32;4.25;;;1.13;;
69937;SDS011;57248;47.320;15.998;2024-03-08T05:18:11;1.77;;;0.52;;
69937;SDS011;57248;47.320;15.998;2024-03-08T05:20:44;5.73;;;1.20;;
69937;SDS011;57248;47.320;15.998;2024-03-08T05:23:16;2.20;;;0.73;;
69937;SDS011;57248;47.320;15.998;2024-03-08T05:25:51;3.63;;;1.08;;
69937;SDS011;57248;47.320;15.998;2024-03-08T05:28:24;5.40;;;1.63;;
69937;SDS011;57248;47.320;15.998;2024-03-08T05:30:56;3.22;;;1.10;;
69937;SDS011;57248;47.320;15.998;2024-03-08T05:33:22;2.87;;;0.73;;
69937;SDS011;57248;47.320;15.998;2024-03-08T05:35:55;4.25;;;1.48;;
69937;SDS011;57248;47.320;15.998;2024-03-08T05:38:21;2.77;;;1.30;;
69937;SDS011;57248;47.320;15.998;2024-03-08T05:40:53;2.50;;;0.70;;
69937;SDS011;57248;47.320;15.998;2024-03-08T05:43:26;2.35;;;0.77;;
69937;SDS011;57248;47.320;15.998;2024-03-08T05:45:58;3.40;;;1.25;;
69937;SDS011;57248;47.320;15.998;2024-03-08T05:48:31;4.38;;;1.30;;
69937;SDS011;57248;47.320;15.998;2024-03-08T05:51:06;4.33;;;1.70;;
69937;SDS011;57248;47.320;15.998;2024-03-08T05:53:31;3.13;;;0.85;;
69937;SDS011;57248;47.320;15.998;2024-03-08T05:56:04;8.60;;;0.88;;
69937;SDS011;57248;47.320;15.998;2024-03-08T05:58:36;2.20;;;0.60;;
69937;SDS011;57248;47.320;15.998;2024-03-08T06:01:08;3.70;;;0.90;;
69937;SDS011;57248;47.320;15.998;2024-03-08T06:03:44;2.50;;;0.88;;
69937;SDS011;57248;47.320;15.998;2024-03-08T06:06:20;3.58;;;0.95;;
69937;SDS011;57248;47.320;15.998;2024-03-08T06:08:53;4.30;;;1.45;;
69937;SDS011;57248;47.320;15.998;2024-03-08T06:11:35;2.70;;;0.87;;
69937;SDS011;57248;47.320;15.998;2024-03-08T06:14:15;2.65;;;1.10;;
69937;SDS011;57248;47.320;15.998;2024-03-08T06:16:50;2.25;;;0.52;;
69937;SDS011;57248;47.320;15.998;2024-03-08T06:19:22;3.38;;;1.02;;
69937;SDS011;57248;47.320;15.998;2024-03-08T06:21:48;3.60;;;1.00;;
69937;SDS011;57248;47.320;15.998;2024-03-08T06:24:20;2.35;;;1.00;;
69937;SDS011;57248;47.320;15.998;2024-03-08T06:26:52;5.65;;;0.90;;
69937;SDS011;57248;47.320;15.998;2024-03-08T06:29:25;2.65;;;0.75;;
69937;SDS011;57248;47.320;15.998;2024-03-08T06:31:58;5.43;;;1.13;;
69937;SDS011;57248;47.320;15.998;2024-03-08T06:34:34;2.47;;;1.00;;
69937;SDS011;57248;47.320;15.998;2024-03-08T06:37:06;2.08;;;0.75;;
69937;SDS011;57248;47.320;15.998;2024-03-08T06:39:38;3.92;;;1.40;;
69937;SDS011;57248;47.320;15.998;2024-03-08T06:42:10;3.95;;;0.88;;
69937;SDS011;57248;47.320;15.998;2024-03-08T06:44:45;3.47;;;1.07;;
69937;SDS011;57248;47.320;15.998;2024-03-08T06:47:27;4.35;;;1.38;;
69937;SDS011;57248;47.320;15.998;2024-03-08T06:49:59;4.70;;;1.25;;
69937;SDS011;57248;47.320;15.998;2024-03-08T06:52:32;5.18;;;1.25;;
69937;SDS011;57248;47.320;15.998;2024-03-08T06:55:05;2.97;;;1.13;;
69937;SDS011;57248;47.320;15.998;2024-03-08T06:57:41;3.80;;;1.03;;
69937;SDS011;57248;47.320;15.998;2024-03-08T07:00:13;2.92;;;0.70;;
69937;SDS011;57248;47.320;15.998;2024-03-08T07:02:50;4.78;;;1.80;;
69937;SDS011;57248;47.320;15.998;2024-03-08T07:05:25;5.70;;;1.05;;
69937;SDS011;57248;47.320;15.998;2024-03-08T07:07:52;7.05;;;1.70;;
69937;SDS011;57248;47.320;15.998;2024-03-08T07:10:24;3.83;;;1.00;;
69937;SDS011;57248;47.320;15.998;2024-03-08T07:12:57;7.70;;;1.70;;
69937;SDS011;57248;47.320;15.998;2024-03-08T07:15:29;2.72;;;1.17;;
69937;SDS011;57248;47.320;15.998;2024-03-08T07:18:02;4.47;;;1.42;;
69937;SDS011;57248;47.320;15.998;2024-03-08T07:20:34;7.43;;;1.75;;
69937;SDS011;57248;47.320;15.998;2024-03-08T07:23:08;5.33;;;2.33;;
69937;SDS011;57248;47.320;15.998;2024-03-08T07:25:40;4.75;;;1.65;;
69937;SDS011;57248;47.320;15.998;2024-03-08T07:28:13;5.75;;;1.65;;
69937;SDS011;57248;47.320;15.998;2024-03-08T07:30:46;5.60;;;1.83;;
69937;SDS011;57248;47.320;15.998;2024-03-08T07:33:25;5.00;;;1.88;;
69937;SDS011;57248;47.320;15.998;2024-03-08T07:35:58;6.43;;;1.70;;
69937;SDS011;57248;47.320;15.998;2024-03-08T07:38:30;5.03;;;1.63;;
69937;SDS011;57248;47.320;15.998;2024-03-08T07:41:02;6.13;;;2.17;;
69937;SDS011;57248;47.320;15.998;2024-03-08T07:43:34;8.60;;;2.70;;
69937;SDS011;57248;47.320;15.998;2024-03-08T07:46:06;12.70;;;4.63;;
69937;SDS011;57248;47.320;15.998;2024-03-08T07:48:45;11.80;;;4.93;;
69937;SDS011;57248;47.320;15.998;2024-03-08T07:51:17;5.93;;;2.83;;
69937;SDS011;57248;47.320;15.998;2024-03-08T07:53:49;4.88;;;1.92;;
69937;SDS011;57248;47.320;15.998;2024-03-08T07:56:21;7.88;;;2.75;;
69937;SDS011;57248;47.320;15.998;2024-03-08T07:58:47;6.03;;;1.97;;
69937;SDS011;57248;47.320;15.998;2024-03-08T08:01:21;8.52;;;2.83;;
69937;SDS011;57248;47.320;15.998;2024-03-08T08:03:54;8.35;;;3.30;;
69937;SDS011;57248;47.320;15.998;2024-03-08T08:06:34;8.63;;;3.20;;
69937;SDS011;57248;47.320;15.998;2024-03-08T08:09:20;8.10;;;3.42;;
69937;SDS011;57248;47.320;15.998;2024-03-08T08:12:07;8.13;;;3.60;;
69937;SDS011;57248;47.320;15.998;2024-03-08T08:14:42;7.55;;;2.95;;
69937;SDS011;57248;47.320;15.998;2024-03-08T08:17:14;6.47;;;2.67;;
69937;SDS011;57248;47.320;15.998;2024-03-08T08:19:47;11.10;;;4.40;;
69937;SDS011;57248;47.320;15.998;2024-03-08T08:22:19;11.75;;;4.30;;
69937;SDS011;57248;47.320;15.998;2024-03-08T08:24:51;9.63;;;3.67;;
69937;SDS011;57248;47.320;15.998;2024-03-08T08:27:24;9.63;;;3.80;;
69937;SDS011;57248;47.320;15.998;2024-03-08T08:29:57;9.68;;;4.00;;
69937;SDS011;57248;47.320;15.998;2024-03-08T08:32:29;9.53;;;4.43;;
69937;SDS011;57248;47.320;15.998;2024-03-08T08:35:03;7.60;;;3.15;;
69937;SDS011;57248;47.320;15.998;2024-03-08T08:37:40;7.50;;;3.28;;
69937;SDS011;57248;47.320;15.998;2024-03-08T08:40:13;8.15;;;3.13;;
69937;SDS011;57248;47.320;15.998;2024-03-08T08:42:49;10.63;;;4.10;;
69937;SDS011;57248;47.320;15.998;2024-03-08T08:45:21;18.37;;;3.80;;
69937;SDS011;57248;47.320;15.998;2024-03-08T08:47:53;7.80;;;3.22;;
69937;SDS011;57248;47.320;15.998;2024-03-08T08:50:26;10.15;;;3.42;;
69937;SDS011;57248;47.320;15.998;2024-03-08T08:52:59;7.28;;;2.60;;
69937;SDS011;57248;47.320;15.998;2024-03-08T08:55:31;10.48;;;3.60;;
69937;SDS011;57248;47.320;15.998;2024-03-08T08:58:05;9.50;;;3.60;;
69937;SDS011;57248;47.320;15.998;2024-03-08T09:00:38;10.43;;;3.97;;
69937;SDS011;57248;47.320;15.998;2024-03-08T09:03:04;10.05;;;4.80;;
69937;SDS011;57248;47.320;15.998;2024-03-08T09:05:38;9.63;;;5.40;;
69937;SDS011;57248;47.320;15.998;2024-03-08T09:08:10;9.87;;;5.40;;
69937;SDS011;57248;47.320;15.998;2024-03-08T09:10:43;9.13;;;5.60;;
69937;SDS011;57248;47.320;15.998;2024-03-08T09:13:15;9.80;;;5.15;;
69937;SDS011;57248;47.320;15.998;2024-03-08T09:16:02;8.38;;;3.92;;
69937;SDS011;57248;47.320;15.998;2024-03-08T09:18:36;9.35;;;3.97;;
69937;SDS011;57248;47.320;15.998;2024-03-08T09:21:08;10.83;;;4.97;;
69937;SDS011;57248;47.320;15.998;2024-03-08T09:23:41;11.10;;;4.50;;
69937;SDS011;57248;47.320;15.998;2024-03-08T09:26:17;9.10;;;4.75;;
69937;SDS011;57248;47.320;15.998;2024-03-08T09:28:49;11.85;;;4.53;;
69937;SDS011;57248;47.320;15.998;2024-03-08T09:31:24;9.63;;;4.30;;
69937;SDS011;57248;47.320;15.998;2024-03-08T09:33:57;9.33;;;3.60;;
69937;SDS011;57248;47.320;15.998;2024-03-08T09:36:29;11.48;;;4.10;;
69937;SDS011;57248;47.320;15.998;2024-03-08T09:39:04;9.80;;;3.90;;
69937;SDS011;57248;47.320;15.998;2024-03-08T09:41:39;9.65;;;3.42;;
69937;SDS011;57248;47.320;15.998;2024-03-08T09:44:11;8.60;;;3.55;;
69937;SDS011;57248;47.320;15.998;2024-03-08T09:46:43;8.43;;;3.23;;
69937;SDS011;57248;47.320;15.998;2024-03-08T09:49:18;8.68;;;3.35;;
69937;SDS011;57248;47.320;15.998;2024-03-08T09:51:51;8.98;;;3.38;;
69937;SDS011;57248;47.320;15.998;2024-03-08T09:54:23;8.63;;;3.10;;
69937;SDS011;57248;47.320;15.998;2024-03-08T09:57:03;9.57;;;3.85;;
69937;SDS011;57248;47.320;15.998;2024-03-08T09:59:38;7.20;;;3.33;;
69937;SDS011;57248;47.320;15.998;2024-03-08T10:02:12;9.65;;;4.15;;
69937;SDS011;57248;47.320;15.998;2024-03-08T10:04:40;9.48;;;4.75;;
69937;SDS011;57248;47.320;15.998;2024-03-08T10:07:18;9.02;;;3.80;;
69937;SDS011;57248;47.320;15.998;2024-03-08T10:09:51;8.27;;;3.42;;
69937;SDS011;57248;47.320;15.998;2024-03-08T10:12:17;8.07;;;2.90;;
69937;SDS011;57248;47.320;15.998;2024-03-08T10:15:00;6.95;;;3.03;;
69937;SDS011;57248;47.320;15.998;2024-03-08T10:17:32;8.40;;;2.90;;
69937;SDS011;57248;47.320;15.998;2024-03-08T10:20:14;6.80;;;2.28;;
69937;SDS011;57248;47.320;15.998;2024-03-08T10:22:47;8.93;;;2.63;;
69937;SDS011;57248;47.320;15.998;2024-03-08T10:25:19;7.57;;;2.97;;
69937;SDS011;57248;47.320;15.998;2024-03-08T10:27:51;8.20;;;2.63;;
69937;SDS011;57248;47.320;15.998;2024-03-08T10:30:26;6.68;;;2.42;;
69937;SDS011;57248;47.320;15.998;2024-03-08T10:32:59;8.27;;;2.97;;
69937;SDS011;57248;47.320;15.998;2024-03-08T10:35:31;4.47;;;1.73;;
69937;SDS011;57248;47.320;15.998;2024-03-08T10:38:08;6.53;;;2.90;;
69937;SDS011;57248;47.320;15.998;2024-03-08T10:40:45;7.75;;;2.90;;
69937;SDS011;57248;47.320;15.998;2024-03-08T10:43:20;9.63;;;2.72;;
69937;SDS011;57248;47.320;15.998;2024-03-08T10:46:27;6.82;;;2.63;;
69937;SDS011;57248;47.320;15.998;2024-03-08T10:49:12;10.15;;;2.63;;
69937;SDS011;57248;47.320;15.998;2024-03-08T10:51:51;6.43;;;2.43;;
69937;SDS011;57248;47.320;15.998;2024-03-08T10:54:25;5.75;;;2.20;;
69937;SDS011;57248;47.320;15.998;2024-03-08T10:56:58;6.38;;;2.10;;
69937;SDS011;57248;47.320;15.998;2024-03-08T10:59:32;3.75;;;1.45;;
69937;SDS011;57248;47.320;15.998;2024-03-08T11:02:07;8.18;;;2.28;;
69937;SDS011;57248;47.320;15.998;2024-03-08T11:04:45;6.40;;;1.97;;
69937;SDS011;57248;47.320;15.998;2024-03-08T11:07:19;8.00;;;2.40;;
69937;SDS011;57248;47.320;15.998;2024-03-08T11:09:51;6.40;;;1.73;;
69937;SDS011;57248;47.320;15.998;2024-03-08T11:12:26;6.10;;;1.92;;
69937;SDS011;57248;47.320;15.998;2024-03-08T11:15:10;6.65;;;2.20;;
69937;SDS011;57248;47.320;15.998;2024-03-08T11:17:50;8.10;;;2.77;;
69937;SDS011;57248;47.320;15.998;2024-03-08T11:20:23;7.20;;;1.45;;
69937;SDS011;57248;47.320;15.998;2024-03-08T11:22:59;8.85;;;2.20;;
69937;SDS011;57248;47.320;15.998;2024-03-08T11:25:34;5.75;;;2.13;;
69937;SDS011;57248;47.320;15.998;2024-03-08T11:28:18;5.85;;;2.15;;
69937;SDS011;57248;47.320;15.998;2024-03-08T11:33:31;5.65;;;2.03;;
69937;SDS011;57248;47.320;15.998;2024-03-08T11:36:12;8.05;;;2.80;;
69937;SDS011;57248;47.320;15.998;2024-03-08T11:38:54;5.43;;;2.08;;
69937;SDS011;57248;47.320;15.998;2024-03-08T11:41:29;5.63;;;2.25;;
69937;SDS011;57248;47.320;15.998;2024-03-08T11:44:03;7.03;;;2.37;;
69937;SDS011;57248;47.320;15.998;2024-03-08T11:46:40;6.80;;;3.03;;
69937;SDS011;57248;47.320;15.998;2024-03-08T11:49:19;7.00;;;2.42;;
69937;SDS011;57248;47.320;15.998;2024-03-08T11:51:52;6.38;;;1.65;;
69937;SDS011;57248;47.320;15.998;2024-03-08T11:54:25;8.75;;;3.05;;
69937;SDS011;57248;47.320;15.998;2024-03-08T11:57:06;8.43;;;3.10;;
69937;SDS011;57248;47.320;15.998;2024-03-08T11:59:38;8.20;;;2.50;;
69937;SDS011;57248;47.320;15.998;2024-03-08T12:02:11;7.80;;;2.63;;
69937;SDS011;57248;47.320;15.998;2024-03-08T12:04:43;8.10;;;2.28;;
69937;SDS011;57248;47.320;15.998;2024-03-08T12:07:17;6.43;;;2.13;;
69937;SDS011;57248;47.320;15.998;2024-03-08T12:12:52;8.32;;;2.60;;
69937;SDS011;57248;47.320;15.998;2024-03-08T12:15:25;8.20;;;2.25;;
69937;SDS011;57248;47.320;15.998;2024-03-08T12:17:59;7.90;;;2.85;;
69937;SDS011;57248;47.320;15.998;2024-03-08T12:20:32;7.72;;;3.28;;
69937;SDS011;57248;47.320;15.998;2024-03-08T12:23:06;8.77;;;3.07;;
69937;SDS011;57248;47.320;15.998;2024-03-08T12:25:46;5.88;;;2.10;;
69937;SDS011;57248;47.320;15.998;2024-03-08T12:28:19;6.57;;;2.20;;
69937;SDS011;57248;47.320;15.998;2024-03-08T12:30:53;8.35;;;3.00;;
69937;SDS011;57248;47.320;15.998;2024-03-08T12:33:28;4.93;;;1.92;;
69937;SDS011;57248;47.320;15.998;2024-03-08T12:36:01;6.10;;;1.20;;
69937;SDS011;57248;47.320;15.998;2024-03-08T12:38:37;7.32;;;2.17;;
69937;SDS011;57248;47.320;15.998;2024-03-08T12:41:10;5.57;;;1.83;;
69937;SDS011;57248;47.320;15.998;2024-03-08T12:43:36;6.90;;;2.03;;
69937;SDS011;57248;47.320;15.998;2024-03-08T12:46:10;5.93;;;2.20;;
69937;SDS011;57248;47.320;15.998;2024-03-08T12:48:43;5.32;;;1.77;;
69937;SDS011;57248;47.320;15.998;2024-03-08T12:51:19;6.50;;;1.88;;
69937;SDS011;57248;47.320;15.998;2024-03-08T12:53:52;5.60;;;1.55;;
69937;SDS011;57248;47.320;15.998;2024-03-08T12:56:31;4.07;;;1.60;;
69937;SDS011;57248;47.320;15.998;2024-03-08T12:59:06;7.35;;;2.50;;
69937;SDS011;57248;47.320;15.998;2024-03-08T13:01:40;5.97;;;2.70;;
69937;SDS011;57248;47.320;15.998;2024-03-08T13:04:12;8.88;;;2.35;;
69937;SDS011;57248;47.320;15.998;2024-03-08T13:06:45;6.57;;;2.30;;
69937;SDS011;57248;47.320;15.998;2024-03-08T13:09:21;3.70;;;0.90;;
69937;SDS011;57248;47.320;15.998;2024-03-08T13:11:53;5.63;;;1.35;;
69937;SDS011;57248;47.320;15.998;2024-03-08T13:14:37;6.18;;;2.40;;
69937;SDS011;57248;47.320;15.998;2024-03-08T13:17:13;9.43;;;2.33;;
69937;SDS011;57248;47.320;15.998;2024-03-08T13:19:46;6.32;;;2.08;;
69937;SDS011;57248;47.320;15.998;2024-03-08T13:22:18;4.43;;;1.57;;
69937;SDS011;57248;47.320;15.998;2024-03-08T13:24:55;6.65;;;1.85;;
69937;SDS011;57248;47.320;15.998;2024-03-08T13:27:28;5.05;;;1.85;;
69937;SDS011;57248;47.320;15.998;2024-03-08T13:30:01;5.78;;;1.75;;
69937;SDS011;57248;47.320;15.998;2024-03-08T13:32:33;7.25;;;2.20;;
69937;SDS011;57248;47.320;15.998;2024-03-08T13:35:05;7.67;;;1.57;;
69937;SDS011;57248;47.320;15.998;2024-03-08T13:37:50;5.32;;;1.65;;
69937;SDS011;57248;47.320;15.998;2024-03-08T13:40:23;9.25;;;2.25;;
69937;SDS011;57248;47.320;15.998;2024-03-08T13:42:50;6.15;;;1.95;;
69937;SDS011;57248;47.320;15.998;2024-03-08T13:45:25;4.57;;;1.42;;
69937;SDS011;57248;47.320;15.998;2024-03-08T13:47:57;7.60;;;2.03;;
69937;SDS011;57248;47.320;15.998;2024-03-08T13:50:31;6.43;;;2.03;;
69937;SDS011;57248;47.320;15.998;2024-03-08T13:53:03;7.88;;;2.13;;
69937;SDS011;57248;47.320;15.998;2024-03-08T13:55:37;5.75;;;1.75;;
69937;SDS011;57248;47.320;15.998;2024-03-08T13:58:11;6.65;;;2.00;;
69937;SDS011;57248;47.320;15.998;2024-03-08T14:00:46;7.07;;;2.60;;
69937;SDS011;57248;47.320;15.998;2024-03-08T14:03:21;7.45;;;2.55;;
69937;SDS011;57248;47.320;15.998;2024-03-08T14:05:55;5.05;;;1.48;;
69937;SDS011;57248;47.320;15.998;2024-03-08T14:08:28;5.80;;;2.13;;
69937;SDS011;57248;47.320;15.998;2024-03-08T14:11:00;6.45;;;2.25;;
69937;SDS011;57248;47.320;15.998;2024-03-08T14:13:42;6.30;;;2.33;;
69937;SDS011;57248;47.320;15.998;2024-03-08T14:16:28;6.68;;;2.13;;
69937;SDS011;57248;47.320;15.998;2024-03-08T14:19:02;10.93;;;2.95;;
69937;SDS011;57248;47.320;15.998;2024-03-08T14:21:37;6.63;;;2.30;;
69937;SDS011;57248;47.320;15.998;2024-03-08T14:24:12;7.53;;;2.22;;
69937;SDS011;57248;47.320;15.998;2024-03-08T14:26:44;7.57;;;1.73;;
69937;SDS011;57248;47.320;15.998;2024-03-08T14:29:20;8.07;;;2.38;;
69937;SDS011;57248;47.320;15.998;2024-03-08T14:31:52;7.43;;;2.28;;
69937;SDS011;57248;47.320;15.998;2024-03-08T14:34:24;9.32;;;2.85;;
69937;SDS011;57248;47.320;15.998;2024-03-08T14:36:58;7.22;;;2.65;;
69937;SDS011;57248;47.320;15.998;2024-03-08T14:39:31;5.07;;;1.50;;
69937;SDS011;57248;47.320;15.998;2024-03-08T14:42:05;5.90;;;2.30;;
69937;SDS011;57248;47.320;15.998;2024-03-08T14:44:41;7.68;;;2.55;;
69937;SDS011;57248;47.320;15.998;2024-03-08T14:47:15;6.43;;;2.45;;
69937;SDS011;57248;47.320;15.998;2024-03-08T14:49:48;10.32;;;3.30;;
69937;SDS011;57248;47.320;15.998;2024-03-08T14:52:21;6.33;;;2.03;;
69937;SDS011;57248;47.320;15.998;2024-03-08T14:54:59;4.40;;;1.90;;
69937;SDS011;57248;47.320;15.998;2024-03-08T14:57:32;6.40;;;2.20;;
69937;SDS011;57248;47.320;15.998;2024-03-08T15:00:04;8.05;;;2.05;;
69937;SDS011;57248;47.320;15.998;2024-03-08T15:02:48;9.60;;;3.30;;
69937;SDS011;57248;47.320;15.998;2024-03-08T15:05:14;7.20;;;2.23;;
69937;SDS011;57248;47.320;15.998;2024-03-08T15:07:46;7.68;;;1.58;;
69937;SDS011;57248;47.320;15.998;2024-03-08T15:10:20;6.93;;;2.50;;
69937;SDS011;57248;47.320;15.998;2024-03-08T15:12:54;11.10;;;2.85;;
69937;SDS011;57248;47.320;15.998;2024-03-08T15:15:27;7.03;;;2.55;;
69937;SDS011;57248;47.320;15.998;2024-03-08T15:18:07;7.75;;;3.22;;